Time;durP1;ratioP1;P1;durP2;ratioP2;P2;SDS_P1;SDS_P2;PMS_P1;PMS_P2;Temp;Humidity;BMP_temperature;BMP_pressure;BME280_temperature;BME280_humidity;BME280_pressure;Samples;Min_cycle;Max_cycle;Signal;HPM_P1;HPM_P2
2022/03/24 00:01:24;;;;;;;13.68;9.25;;;;;;;20.15;41.17;103146.00;5041633;28;20049;-42
2022/03/24 00:03:51;;;;;;;18.23;10.85;;;;;;;20.14;40.91;103138.91;5043619;28;20068;-42
2022/03/24 00:06:18;;;;;;;14.43;9.70;;;;;;;20.12;41.59;103140.84;5041522;28;20191;-42
2022/03/24 00:08:45;;;;;;;14.75;9.35;;;;;;;20.11;41.16;103130.19;5037937;28;20492;-42
2022/03/24 00:11:11;;;;;;;14.82;9.98;;;;;;;20.09;41.48;103132.97;5041194;28;20492;-42
2022/03/24 00:13:38;;;;;;;14.98;9.90;;;;;;;20.07;41.24;103134.94;5039911;28;20328;-42
2022/03/24 00:16:04;;;;;;;13.77;9.45;;;;;;;20.06;41.36;103135.03;5039949;28;20059;-42
2022/03/24 00:18:32;;;;;;;14.90;10.18;;;;;;;20.05;41.17;103134.16;5042742;28;21431;-42
2022/03/24 00:20:58;;;;;;;14.18;9.95;;;;;;;20.04;41.14;103134.28;5045695;28;20047;-42
2022/03/24 00:23:25;;;;;;;16.13;9.18;;;;;;;20.03;41.78;103128.06;5037104;28;20053;-42
2022/03/24 00:25:51;;;;;;;18.02;11.43;;;;;;;20.02;42.04;103130.84;5046046;28;20052;-42
2022/03/24 00:28:18;;;;;;;17.40;10.05;;;;;;;20.01;41.58;103129.13;5043123;28;20416;-42
2022/03/24 00:30:45;;;;;;;14.30;9.82;;;;;;;19.99;41.68;103129.25;5045035;28;20327;-42
2022/03/24 00:33:12;;;;;;;15.10;10.00;;;;;;;19.98;41.71;103122.16;5040223;28;20355;-42
2022/03/24 00:35:38;;;;;;;15.70;9.73;;;;;;;19.97;41.49;103123.09;5040827;28;20473;-42
2022/03/24 00:38:05;;;;;;;15.20;10.73;;;;;;;19.96;41.82;103124.94;5036429;28;20071;-42
2022/03/24 00:40:32;;;;;;;14.27;9.38;;;;;;;19.92;41.52;103122.59;5041534;28;20479;-42
2022/03/24 00:42:59;;;;;;;18.00;10.70;;;;;;;19.93;42.07;103121.59;5044916;28;20040;-42
2022/03/24 00:45:26;;;;;;;14.10;9.55;;;;;;;19.90;41.43;103114.63;5039600;28;20048;-42
2022/03/24 00:47:53;;;;;;;18.92;10.05;;;;;;;19.89;42.11;103114.72;5040183;28;20143;-42
2022/03/24 00:50:19;;;;;;;13.13;9.40;;;;;;;19.87;41.41;103116.69;5040495;28;20049;-42
2022/03/24 00:52:46;;;;;;;16.20;10.25;;;;;;;19.85;42.16;103114.06;5040559;28;20049;-41
2022/03/24 00:55:18;;;;;;;15.50;11.02;;;;;;;19.83;41.98;103113.34;5042173;28;20037;-42
2022/03/24 00:57:49;;;;;;;18.55;10.68;;;;;;;19.82;41.52;103116.13;5042636;28;20064;-42
2022/03/24 01:00:17;;;;;;;14.77;9.88;;;;;;;19.80;41.79;103108.16;5042039;28;20061;-42
2022/03/24 01:02:45;;;;;;;14.80;9.68;;;;;;;19.79;42.30;103110.97;5038997;28;20045;-42
2022/03/24 01:05:13;;;;;;;14.32;9.88;;;;;;;19.75;41.48;103113.03;5042945;28;20336;-42
2022/03/24 01:07:40;;;;;;;17.33;10.38;;;;;;;19.73;41.85;103113.13;5042385;28;20045;-42
2022/03/24 01:10:07;;;;;;;15.88;10.50;;;;;;;19.71;41.46;103112.38;5040714;28;20053;-42
2022/03/24 01:12:34;;;;;;;18.48;10.25;;;;;;;19.70;42.18;103110.69;5038306;28;20054;-42
2022/03/24 01:15:00;;;;;;;14.32;10.13;;;;;;;19.69;41.73;103102.69;5041174;28;20135;-42
2022/03/24 01:17:27;;;;;;;16.42;10.55;;;;;;;19.68;41.95;103103.66;5042078;28;20230;-41
2022/03/24 01:19:53;;;;;;;15.70;10.75;;;;;;;19.65;42.21;103102.03;5038863;28;20140;-42
2022/03/24 01:22:20;;;;;;;14.48;10.45;;;;;;;19.64;42.06;103099.47;5039691;28;20128;-42
2022/03/24 01:24:47;;;;;;;18.23;9.82;;;;;;;19.62;42.23;103094.22;5040669;28;20059;-42
2022/03/24 01:27:15;;;;;;;15.20;10.10;;;;;;;19.61;41.96;103095.16;5040260;28;20139;-42
2022/03/24 01:29:42;;;;;;;16.40;10.57;;;;;;;19.59;41.98;103097.09;5039674;28;20080;-40
2022/03/24 01:32:10;;;;;;;19.42;11.15;;;;;;;19.56;41.70;103094.59;5038914;28;20063;-40
2022/03/24 01:34:38;;;;;;;17.00;10.00;;;;;;;19.56;42.56;103096.44;5042194;28;20301;-41
2022/03/24 01:37:06;;;;;;;17.35;10.57;;;;;;;19.56;42.41;103093.75;5043410;28;20158;-41
2022/03/24 01:39:32;;;;;;;15.73;10.25;;;;;;;19.54;42.26;103091.19;5036387;28;20171;-41
2022/03/24 01:42:00;;;;;;;16.05;10.20;;;;;;;19.52;42.34;103090.41;5039609;28;20049;-40
2022/03/24 01:44:27;;;;;;;16.55;10.35;;;;;;;19.51;41.94;103088.69;5037979;28;20055;-41
2022/03/24 01:47:02;;;;;;;16.67;10.38;;;;;;;19.49;42.46;103087.94;5041417;28;20119;-40
2022/03/24 01:49:31;;;;;;;15.90;10.40;;;;;;;19.47;42.48;103084.50;5039766;28;20041;-40
2022/03/24 01:51:58;;;;;;;15.35;11.00;;;;;;;19.46;42.13;103085.50;5038808;28;20056;-40
2022/03/24 01:54:30;;;;;;;14.38;10.68;;;;;;;19.45;42.45;103086.44;5038843;28;20067;-40
2022/03/24 01:56:58;;;;;;;15.57;10.85;;;;;;;19.43;42.67;103088.38;5041161;28;20416;-42
2022/03/24 01:59:25;;;;;;;16.50;10.35;;;;;;;19.41;42.32;103083.09;5039474;28;21061;-42
2022/03/24 02:01:52;;;;;;;15.85;10.43;;;;;;;19.40;42.63;103085.91;5039362;28;20071;-40
2022/03/24 02:04:21;;;;;;;18.20;10.80;;;;;;;19.39;42.23;103084.19;5041327;28;20044;-42
2022/03/24 02:06:48;;;;;;;17.35;10.40;;;;;;;19.38;42.57;103082.47;5038826;28;20040;-41
2022/03/24 02:09:16;;;;;;;16.55;9.98;;;;;;;19.37;42.27;103080.72;5038629;28;20043;-42
2022/03/24 02:11:42;;;;;;;14.27;10.50;;;;;;;19.37;42.71;103083.41;5040323;28;20048;-41
2022/03/24 02:14:09;;;;;;;15.73;10.77;;;;;;;19.33;42.19;103076.53;5039890;28;20053;-43
2022/03/24 02:16:38;;;;;;;15.05;10.15;;;;;;;19.31;42.70;103073.97;5041574;28;20060;-43
2022/03/24 02:19:16;;;;;;;17.48;10.57;;;;;;;19.31;42.58;103075.81;5044793;28;20045;-43
2022/03/24 02:21:45;;;;;;;16.75;9.80;;;;;;;19.31;42.30;103073.13;5041896;28;20125;-43
2022/03/24 02:24:14;;;;;;;15.50;10.32;;;;;;;19.30;42.84;103071.41;5041113;28;20317;-42
2022/03/24 02:26:42;;;;;;;15.02;10.05;;;;;;;19.28;42.35;103066.13;5037277;28;20052;-43
2022/03/24 02:29:11;;;;;;;15.85;10.45;;;;;;;19.27;42.12;103067.09;5037886;28;20045;-42
2022/03/24 02:31:42;;;;;;;15.93;10.05;;;;;;;19.25;42.52;103066.31;5036672;28;20049;-41
2022/03/24 02:36:57;;;;;;;16.25;10.00;;;;;;;19.22;42.23;103059.34;5037979;28;20053;-41
2022/03/24 02:39:24;;;;;;;14.68;9.73;;;;;;;19.21;42.10;103059.44;5037787;28;20374;-42
2022/03/24 02:41:53;;;;;;;15.77;10.45;;;;;;;19.18;42.27;103068.59;5034136;28;20044;-42
2022/03/24 02:44:22;;;;;;;14.80;10.18;;;;;;;19.18;42.31;103068.59;5041213;28;20041;-42
2022/03/24 02:46:51;;;;;;;14.98;9.30;;;;;;;19.18;42.20;103068.59;5035029;28;20047;-42
2022/03/24 02:49:20;;;;;;;15.07;10.00;;;;;;;19.16;42.20;103067.81;5039888;28;20061;-42
2022/03/24 02:51:46;;;;;;;15.30;9.85;;;;;;;19.15;42.00;103067.94;5037637;28;20053;-42
2022/03/24 02:54:13;;;;;;;15.88;10.70;;;;;;;19.15;42.24;103062.56;5040423;28;20041;-42
2022/03/24 02:56:42;;;;;;;14.48;10.13;;;;;;;19.14;42.13;103068.91;5036118;28;20930;-41
2022/03/24 02:59:10;;;;;;;14.48;9.90;;;;;;;19.12;42.31;103071.69;5039359;28;20136;-43
2022/03/24 03:01:41;;;;;;;14.38;10.05;;;;;;;19.11;42.57;103063.75;5038932;28;20041;-42
2022/03/24 03:04:10;;;;;;;14.13;9.77;;;;;;;19.10;42.30;103073.66;5042818;28;20045;-41
2022/03/24 03:06:36;;;;;;;17.27;10.93;;;;;;;19.10;42.32;103070.97;5037021;28;20096;-42
2022/03/24 03:09:04;;;;;;;15.93;10.23;;;;;;;19.09;42.88;103076.41;5038119;28;20140;-42
2022/03/24 03:11:31;;;;;;;16.98;10.65;;;;;;;19.08;42.52;103075.56;5037269;28;21107;-40
2022/03/24 03:13:59;;;;;;;12.23;8.90;;;;;;;19.06;42.51;103072.13;5039658;28;20045;-42
2022/03/24 03:16:26;;;;;;;16.05;9.85;;;;;;;19.05;42.47;103069.53;5038375;28;20402;-42
2022/03/24 03:18:55;;;;;;;17.98;9.65;;;;;;;19.03;42.51;103072.34;5045629;28;20045;-42
2022/03/24 03:21:25;;;;;;;15.35;10.23;;;;;;;19.03;42.73;103071.47;5042737;28;20038;-44
2022/03/24 03:23:51;;;;;;;14.65;9.95;;;;;;;19.02;42.47;103073.31;5041310;28;20048;-42
2022/03/24 03:26:19;;;;;;;14.35;9.18;;;;;;;19.01;42.34;103066.19;5006163;28;1094005;-42
2022/03/24 03:28:45;;;;;;;14.43;9.57;;;;;;;18.98;42.77;103072.66;5043273;28;20147;-42
2022/03/24 03:31:13;;;;;;;13.73;9.52;;;;;;;18.99;42.85;103076.22;5042592;28;20040;-42
2022/03/24 03:33:40;;;;;;;14.07;9.25;;;;;;;18.97;42.45;103070.06;5043382;28;20408;-41
2022/03/24 03:36:06;;;;;;;16.13;10.02;;;;;;;18.98;42.75;103075.34;5044461;28;20051;-42
2022/03/24 03:38:33;;;;;;;14.05;9.07;;;;;;;18.96;42.76;103071.91;5041675;28;20054;-43
2022/03/24 03:41:02;;;;;;;15.93;9.27;;;;;;;18.96;42.54;103071.03;5039473;28;20416;-42
2022/03/24 03:43:29;;;;;;;14.02;8.70;;;;;;;18.97;42.76;103072.75;5037023;28;20068;-44
2022/03/24 03:45:56;;;;;;;17.65;9.07;;;;;;;18.95;42.51;103072.00;5043894;28;20057;-42
2022/03/24 03:48:22;;;;;;;15.13;9.10;;;;;;;18.93;42.67;103073.94;5040385;28;20065;-43
2022/03/24 03:50:49;;;;;;;15.02;9.32;;;;;;;18.91;42.41;103070.50;5043905;28;20041;-42
2022/03/24 03:53:16;;;;;;;12.10;9.15;;;;;;;18.91;42.96;103070.50;5043743;28;20479;-43
2022/03/24 03:55:43;;;;;;;15.00;10.05;;;;;;;18.90;42.98;103071.47;5041740;28;20045;-42
2022/03/24 03:58:11;;;;;;;14.45;9.63;;;;;;;18.88;42.56;103068.88;5041529;28;20051;-42
2022/03/24 04:00:53;;;;;;;13.55;9.00;;;;;;;18.88;42.62;103070.69;5043617;28;20080;-41
2022/03/24 04:03:20;;;;;;;14.70;9.32;;;;;;;18.88;42.61;103068.00;5038203;28;20064;-43
2022/03/24 04:05:46;;;;;;;14.93;9.55;;;;;;;18.86;42.96;103067.28;5045284;28;20060;-42
2022/03/24 04:08:13;;;;;;;15.00;10.00;;;;;;;18.85;42.88;103058.31;5042373;28;20067;-41
2022/03/24 04:10:40;;;;;;;12.95;8.80;;;;;;;18.84;42.69;103063.81;5042862;28;21110;-41
2022/03/24 04:13:06;;;;;;;15.38;9.35;;;;;;;18.84;43.09;103063.81;5047157;28;20149;-42
2022/03/24 04:15:34;;;;;;;14.75;9.43;;;;;;;18.83;42.80;103062.09;5046094;28;20047;-42
2022/03/24 04:18:01;;;;;;;13.88;9.48;;;;;;;18.83;42.92;103067.47;5044459;28;20042;-43
2022/03/24 04:20:27;;;;;;;16.75;9.52;;;;;;;18.82;42.68;103063.06;5036313;28;20060;-43
2022/03/24 04:22:59;;;;;;;13.52;9.40;;;;;;;18.80;42.60;103070.38;5041834;28;20358;-42
2022/03/24 04:25:27;;;;;;;12.98;8.75;;;;;;;18.79;42.90;103065.97;5038242;28;20063;-42
2022/03/24 04:27:54;;;;;;;13.82;9.50;;;;;;;18.78;42.93;103066.94;5039444;28;20140;-42
2022/03/24 04:30:21;;;;;;;15.23;9.30;;;;;;;18.78;42.92;103066.94;5041728;28;20223;-41
2022/03/24 04:32:49;;;;;;;15.60;9.77;;;;;;;18.77;42.92;103070.56;5038119;28;20048;-41
2022/03/24 04:35:16;;;;;;;16.17;9.65;;;;;;;18.75;43.02;103065.31;5036275;28;20128;-42
2022/03/24 04:37:43;;;;;;;14.82;10.40;;;;;;;18.75;42.78;103070.69;5037625;28;20056;-42
2022/03/24 04:40:12;;;;;;;13.73;9.00;;;;;;;18.74;42.89;103067.13;5037706;28;20337;-42
2022/03/24 04:42:39;;;;;;;13.85;9.13;;;;;;;18.72;42.93;103062.81;5035739;28;20171;-42
2022/03/24 04:45:06;;;;;;;15.02;9.65;;;;;;;18.71;42.75;103067.34;5040247;28;20132;-42
2022/03/24 04:47:34;;;;;;;16.02;9.55;;;;;;;18.72;42.74;103069.06;5036447;28;20083;-42
2022/03/24 04:50:01;;;;;;;13.65;9.00;;;;;;;18.70;43.09;103071.00;5037028;28;20128;-42
2022/03/24 04:52:28;;;;;;;12.65;8.85;;;;;;;18.69;42.60;103068.34;5038759;28;20041;-42
2022/03/24 04:54:55;;;;;;;14.55;10.05;;;;;;;18.69;43.06;103074.63;5037876;28;20078;-42
2022/03/24 04:57:21;;;;;;;13.23;9.02;;;;;;;18.67;43.19;103065.78;5037507;28;20124;-43
2022/03/24 04:59:48;;;;;;;14.25;9.75;;;;;;;18.66;42.83;103061.41;5036239;28;20431;-42
2022/03/24 05:02:15;;;;;;;15.18;9.15;;;;;;;18.66;42.98;103074.81;5030966;28;20048;-42
2022/03/24 05:04:42;;;;;;;13.10;9.00;;;;;;;18.66;43.46;103060.53;5034471;28;20676;-42
2022/03/24 05:07:09;;;;;;;15.35;9.35;;;;;;;18.64;43.27;103071.38;5039131;28;20044;-43
2022/03/24 05:09:37;;;;;;;14.05;9.77;;;;;;;18.64;43.21;103070.50;5041256;28;20053;-43
2022/03/24 05:12:04;;;;;;;14.88;10.52;;;;;;;18.62;43.15;103069.75;5045968;28;20056;-43
2022/03/24 05:14:32;;;;;;;14.80;10.13;;;;;;;18.60;42.83;103069.00;5046868;28;20353;-44
2022/03/24 05:16:59;;;;;;;16.88;10.43;;;;;;;18.61;43.13;103071.56;5039955;28;20607;-43
2022/03/24 05:19:27;;;;;;;17.90;10.75;;;;;;;18.59;42.80;103073.50;5041465;28;20120;-44
2022/03/24 05:21:54;;;;;;;13.50;9.88;;;;;;;18.60;42.85;103082.41;5041755;28;20454;-43
2022/03/24 05:24:21;;;;;;;17.05;10.02;;;;;;;18.59;43.05;103083.41;5045139;28;20033;-43
2022/03/24 05:26:47;;;;;;;15.32;10.38;;;;;;;18.59;43.42;103084.25;5045863;28;20143;-43
2022/03/24 05:29:14;;;;;;;16.70;10.68;;;;;;;18.57;43.15;103083.47;5041001;28;20045;-43
2022/03/24 05:31:40;;;;;;;15.65;10.13;;;;;;;18.56;43.16;103080.91;5039507;28;20045;-43
2022/03/24 05:34:07;;;;;;;17.45;10.23;;;;;;;18.55;42.79;103080.03;5048942;28;20403;-43
2022/03/24 05:36:33;;;;;;;15.07;10.40;;;;;;;18.56;43.25;103075.53;5042775;28;20430;-47
2022/03/24 05:39:00;;;;;;;16.55;9.93;;;;;;;18.55;43.12;103076.50;5045100;28;20049;-43
2022/03/24 05:41:27;;;;;;;14.02;9.75;;;;;;;18.55;43.05;103081.88;5042177;28;20431;-43
2022/03/24 05:44:03;;;;;;;16.05;10.65;;;;;;;18.55;43.42;103079.19;5042179;28;20049;-43
2022/03/24 05:46:41;;;;;;;15.32;9.85;;;;;;;18.55;43.27;103085.41;5044135;28;20061;-44
2022/03/24 05:49:15;;;;;;;14.50;9.52;;;;;;;18.54;42.93;103074.78;5043212;28;20096;-42
2022/03/24 05:51:43;;;;;;;15.93;9.23;;;;;;;18.53;43.29;103084.66;5042782;28;20136;-43
2022/03/24 05:54:11;;;;;;;13.32;9.23;;;;;;;18.53;43.30;103084.66;5040156;28;20056;-43
2022/03/24 05:56:38;;;;;;;17.42;10.63;;;;;;;18.54;43.25;103082.84;5046959;28;20566;-43
2022/03/24 05:59:05;;;;;;;15.43;10.35;;;;;;;18.54;42.87;103096.28;5044433;28;20060;-43
2022/03/24 06:01:33;;;;;;;16.13;9.82;;;;;;;18.52;43.12;103088.31;5041751;28;20041;-43
2022/03/24 06:04:00;;;;;;;16.73;9.68;;;;;;;18.52;42.76;103088.31;5044777;28;20370;-43
2022/03/24 06:06:27;;;;;;;15.20;9.52;;;;;;;18.53;43.08;103086.47;5043055;28;20048;-42
2022/03/24 06:08:54;;;;;;;14.63;9.90;;;;;;;18.54;42.93;103101.66;5040553;28;20063;-42
2022/03/24 06:11:21;;;;;;;14.23;8.68;;;;;;;18.54;43.27;103091.75;5046376;28;20061;-42
2022/03/24 06:13:48;;;;;;;14.02;9.38;;;;;;;18.56;43.11;103092.50;5045245;28;20045;-42
2022/03/24 06:16:14;;;;;;;12.63;8.82;;;;;;;18.56;43.08;103089.81;5044175;28;20423;-42
2022/03/24 06:18:41;;;;;;;15.07;9.40;;;;;;;18.58;42.92;103095.09;5044661;28;20056;-43
2022/03/24 06:21:09;;;;;;;14.05;9.57;;;;;;;18.59;42.18;103088.75;5046419;28;20156;-42
2022/03/24 06:23:36;;;;;;;14.90;9.68;;;;;;;18.62;43.05;103089.44;5042978;28;20053;-43
2022/03/24 06:26:03;;;;;;;17.00;9.65;;;;;;;18.62;42.63;103089.44;5041232;28;20056;-43
2022/03/24 06:28:30;;;;;;;16.63;10.60;;;;;;;18.66;42.91;103095.47;5042653;28;20081;-42
2022/03/24 06:30:56;;;;;;;16.27;9.90;;;;;;;18.67;42.47;103094.47;5040699;28;20049;-43
2022/03/24 06:33:23;;;;;;;14.07;9.00;;;;;;;18.70;42.85;103102.38;5034719;28;20047;-43
2022/03/24 06:35:50;;;;;;;15.23;10.05;;;;;;;18.71;42.60;103099.56;5038334;28;20077;-42
2022/03/24 06:38:18;;;;;;;14.82;8.93;;;;;;;18.74;42.71;103099.38;5040733;28;20037;-43
2022/03/24 06:40:44;;;;;;;16.17;9.68;;;;;;;18.77;42.40;103103.66;5041410;28;20460;-41
2022/03/24 06:43:11;;;;;;;15.57;9.52;;;;;;;18.80;42.45;103107.97;5040175;28;20059;-42
2022/03/24 06:45:38;;;;;;;18.23;9.48;;;;;;;18.84;42.61;103109.50;5037730;28;20141;-41
2022/03/24 06:48:09;;;;;;;16.98;10.43;;;;;;;18.88;42.63;103105.63;5035597;28;20420;-42
2022/03/24 06:50:36;;;;;;;13.95;9.77;;;;;;;18.93;42.29;103108.84;5042987;28;20562;-40
2022/03/24 06:53:03;;;;;;;15.15;9.38;;;;;;;18.96;42.69;103111.34;5041288;28;20077;-40
2022/03/24 06:55:31;;;;;;;14.38;9.82;;;;;;;18.98;42.14;103112.13;5048027;28;20124;-40
2022/03/24 06:57:57;;;;;;;13.57;9.88;;;;;;;19.01;42.16;103117.25;5042552;28;20391;-39
2022/03/24 07:00:24;;;;;;;13.00;9.43;;;;;;;19.04;42.35;103111.69;5043113;28;20040;-40
2022/03/24 07:02:51;;;;;;;15.25;10.25;;;;;;;19.07;41.81;103108.78;5042817;28;20040;-40
2022/03/24 07:05:17;;;;;;;14.23;9.38;;;;;;;19.10;41.94;103111.28;5044982;28;20114;-40
2022/03/24 07:07:44;;;;;;;17.33;10.32;;;;;;;19.12;42.29;103109.31;5046003;28;20068;-40
2022/03/24 07:10:12;;;;;;;15.55;9.90;;;;;;;19.14;42.18;103103.88;5043583;28;20056;-40
2022/03/24 07:12:38;;;;;;;17.33;10.00;;;;;;;19.16;41.82;103101.91;5042834;28;20132;-41
2022/03/24 07:15:10;;;;;;;14.27;9.13;;;;;;;19.18;41.88;103098.16;5044705;28;20049;-40
2022/03/24 07:17:37;;;;;;;18.77;10.07;;;;;;;19.19;42.32;103104.41;5041558;28;20131;-40
2022/03/24 07:20:05;;;;;;;14.23;9.40;;;;;;;19.19;41.90;103107.94;5046276;28;20074;-40
2022/03/24 07:22:32;;;;;;;16.13;9.95;;;;;;;19.21;41.67;103108.69;5045967;28;20128;-41
2022/03/24 07:24:59;;;;;;;15.90;9.45;;;;;;;19.22;41.70;103115.81;5044254;28;20045;-40
2022/03/24 07:27:26;;;;;;;13.70;9.55;;;;;;;19.24;42.01;103124.63;5044262;28;20053;-40
2022/03/24 07:29:58;;;;;;;14.30;9.85;;;;;;;19.27;41.67;103128.06;5040331;28;20144;-40
2022/03/24 07:32:25;;;;;;;15.23;9.75;;;;;;;19.28;41.95;103135.16;5040264;28;20645;-41
2022/03/24 07:34:51;;;;;;;15.65;9.15;;;;;;;19.29;41.99;103131.50;5039202;28;20181;-40
2022/03/24 07:37:18;;;;;;;16.15;9.55;;;;;;;19.30;42.13;103134.09;5042373;28;20040;-40
2022/03/24 07:39:44;;;;;;;17.35;9.43;;;;;;;19.31;42.21;103126.91;5041941;28;20053;-41
2022/03/24 07:42:14;;;;;;;14.00;8.90;;;;;;;19.32;41.89;103125.91;5042448;28;20060;-41
2022/03/24 07:44:40;;;;;;;15.90;9.20;;;;;;;19.34;42.04;103129.38;5042081;28;20053;-41
2022/03/24 07:47:07;;;;;;;15.73;9.48;;;;;;;19.36;41.95;103135.50;5039105;28;20053;-41
2022/03/24 07:49:34;;;;;;;14.10;9.52;;;;;;;19.37;42.22;103134.50;5041418;28;20045;-41
2022/03/24 07:52:02;;;;;;;15.18;10.02;;;;;;;19.37;42.17;103135.38;5042373;28;20059;-41
2022/03/24 07:54:57;;;;;;;14.00;8.45;;;;;;;19.39;42.23;103132.59;5043646;28;20045;-41
2022/03/24 07:57:30;;;;;;;15.45;9.25;;;;;;;19.41;42.07;103131.50;5046100;28;20045;-40
2022/03/24 07:59:58;;;;;;;17.00;9.45;;;;;;;19.43;42.26;103136.78;5040532;28;20420;-40
2022/03/24 08:02:24;;;;;;;13.15;8.95;;;;;;;19.43;42.31;103132.28;5044591;28;20041;-40
2022/03/24 08:04:53;;;;;;;13.13;9.25;;;;;;;19.47;42.62;103135.63;5047176;28;20045;-40
2022/03/24 08:07:21;;;;;;;11.70;8.43;;;;;;;19.49;42.01;103139.91;5046321;28;20053;-40
2022/03/24 08:09:49;;;;;;;13.77;8.85;;;;;;;19.52;42.49;103143.34;5040072;28;20073;-41
2022/03/24 08:12:15;;;;;;;13.27;8.05;;;;;;;19.53;42.67;103143.22;5048139;28;20061;-41
2022/03/24 08:14:42;;;;;;;13.20;8.30;;;;;;;19.56;42.63;103140.34;5048453;28;20580;-40
2022/03/24 08:17:08;;;;;;;12.77;9.13;;;;;;;19.58;42.43;103138.41;5044350;28;20033;-41
2022/03/24 08:19:35;;;;;;;12.00;8.52;;;;;;;19.61;42.46;103138.22;5043696;28;20129;-41
2022/03/24 08:22:02;;;;;;;12.82;8.30;;;;;;;19.63;42.74;103138.97;5044569;28;20128;-41
2022/03/24 08:24:29;;;;;;;11.32;8.10;;;;;;;19.64;42.83;103129.06;5045238;28;20377;-41
2022/03/24 08:26:56;;;;;;;12.82;8.07;;;;;;;19.65;42.80;103142.41;5041603;28;20125;-41
2022/03/24 08:29:22;;;;;;;9.98;7.63;;;;;;;19.68;42.45;103144.88;5041999;28;20060;-41
2022/03/24 08:31:49;;;;;;;11.65;8.07;;;;;;;19.70;42.53;103140.28;5044309;28;20049;-41
2022/03/24 08:34:16;;;;;;;10.52;7.35;;;;;;;19.72;43.01;103141.00;5044459;28;20131;-41
2022/03/24 08:36:43;;;;;;;13.18;7.80;;;;;;;19.75;42.97;103136.38;5045234;28;20151;-41
2022/03/24 08:39:09;;;;;;;11.25;7.80;;;;;;;19.76;42.78;103140.78;5043877;28;20088;-42
2022/03/24 08:41:36;;;;;;;10.85;7.75;;;;;;;19.78;42.70;103141.53;5045449;28;20042;-42
2022/03/24 08:44:03;;;;;;;10.35;6.95;;;;;;;19.80;42.14;103142.28;5049861;28;20045;-41
2022/03/24 08:46:30;;;;;;;10.90;7.53;;;;;;;19.81;42.51;103144.00;5045213;28;20127;-41
2022/03/24 08:48:57;;;;;;;11.05;7.38;;;;;;;19.83;42.63;103151.03;5043046;28;20052;-41
2022/03/24 08:51:24;;;;;;;12.07;7.45;;;;;;;19.85;42.32;103156.28;5045409;28;20135;-41
2022/03/24 08:53:51;;;;;;;12.63;8.35;;;;;;;19.86;42.42;103150.81;5045668;28;20515;-41
2022/03/24 08:56:18;;;;;;;12.18;7.03;;;;;;;19.88;42.15;103158.75;5048425;28;20037;-41
2022/03/24 08:58:45;;;;;;;10.48;6.65;;;;;;;19.87;42.75;103152.53;5045125;28;20063;-41
2022/03/24 09:01:12;;;;;;;11.80;7.10;;;;;;;19.91;42.26;103159.41;5040775;28;20045;-41
2022/03/24 09:03:39;;;;;;;11.23;7.50;;;;;;;19.92;42.39;103158.44;5047289;28;20672;-41
2022/03/24 09:06:07;;;;;;;11.68;6.90;;;;;;;19.93;42.88;103160.13;5044453;28;20052;-41
2022/03/24 09:08:34;;;;;;;11.05;7.60;;;;;;;19.96;42.61;103161.75;5045979;28;20103;-41
2022/03/24 09:11:01;;;;;;;10.05;7.55;;;;;;;19.97;42.83;103163.47;5045663;28;20420;-41
2022/03/24 09:13:27;;;;;;;8.50;6.40;;;;;;;19.99;42.49;103172.31;5043992;28;20094;-41
2022/03/24 09:15:54;;;;;;;11.15;6.70;;;;;;;20.01;42.61;103166.81;5043356;28;20049;-41
2022/03/24 09:18:21;;;;;;;8.95;6.47;;;;;;;20.03;42.10;103170.28;5045947;28;20044;-41
2022/03/24 09:20:48;;;;;;;10.93;6.22;;;;;;;20.05;42.52;103173.69;5044720;28;20041;-41
2022/03/24 09:23:15;;;;;;;8.80;6.38;;;;;;;20.06;42.52;103165.53;5046921;28;20049;-41
2022/03/24 09:25:42;;;;;;;11.55;6.72;;;;;;;20.09;42.57;103176.06;5044303;28;20106;-41
2022/03/24 09:28:10;;;;;;;12.10;6.60;;;;;;;20.11;42.56;103171.44;5042100;28;20053;-41
2022/03/24 09:30:37;;;;;;;9.68;6.03;;;;;;;20.14;41.94;103168.53;5043836;28;20051;-40
2022/03/24 09:33:04;;;;;;;9.75;6.35;;;;;;;20.17;41.92;103168.28;5043768;28;20057;-40
2022/03/24 09:35:31;;;;;;;8.95;6.03;;;;;;;20.20;41.97;103167.22;5048629;28;20329;-41
2022/03/24 09:37:57;;;;;;;8.85;5.70;;;;;;;20.24;41.85;103167.84;5047548;28;20044;-40
2022/03/24 09:40:24;;;;;;;8.07;6.00;;;;;;;20.27;42.11;103173.03;5040124;28;20087;-41
2022/03/24 09:42:51;;;;;;;9.43;6.22;;;;;;;20.30;41.89;103172.78;5047017;28;20285;-41
2022/03/24 09:45:18;;;;;;;9.57;5.72;;;;;;;20.34;41.93;103168.88;5044724;28;20384;-41
2022/03/24 09:47:45;;;;;;;9.23;6.20;;;;;;;20.37;42.08;103174.91;5040209;28;20131;-42
2022/03/24 09:50:14;;;;;;;7.88;5.30;;;;;;;20.40;41.66;103166.63;5040036;28;20442;-42
2022/03/24 09:52:41;;;;;;;10.20;5.50;;;;;;;20.44;41.85;103164.56;5044048;28;20128;-42
2022/03/24 09:55:16;;;;;;;;;;;;;;;20.47;41.50;103167.03;5041320;28;20045;-42
2022/03/24 09:57:43;;;;;;;9.88;6.40;;;;;;;20.53;41.46;103163.03;5045602;28;20015;-42
2022/03/24 10:00:30;;;;;;;8.70;5.57;;;;;;;20.55;41.49;103155.72;5043752;28;20306;-42
2022/03/24 10:03:15;;;;;;;7.90;5.60;;;;;;;20.56;41.89;103152.06;5044875;28;20051;-42
2022/03/24 10:06:04;;;;;;;10.10;6.18;;;;;;;20.60;41.85;103156.22;5043300;28;20052;-42
2022/03/24 10:08:31;;;;;;;9.20;6.25;;;;;;;20.62;41.34;103156.97;5046892;28;20080;-42
2022/03/24 10:11:00;;;;;;;8.70;5.70;;;;;;;20.65;41.70;103156.75;5044547;28;20045;-42
2022/03/24 10:13:41;;;;;;;11.27;6.20;;;;;;;20.67;41.71;103169.13;5045172;28;20672;-42
2022/03/24 10:16:11;;;;;;;11.13;6.45;;;;;;;20.69;41.46;103159.09;5043295;28;20064;-42
2022/03/24 10:18:37;;;;;;;9.25;5.18;;;;;;;20.74;41.22;103157.88;5041395;28;20123;-42
2022/03/24 10:21:08;;;;;;;8.13;5.78;;;;;;;20.75;40.96;103156.94;5046823;28;20136;-42
2022/03/24 10:23:44;;;;;;;9.07;6.18;;;;;;;20.78;41.51;103145.91;5042383;28;20106;-43
2022/03/24 10:26:11;;;;;;;7.47;5.47;;;;;;;20.80;41.00;103152.91;5045533;28;20045;-42
2022/03/24 10:28:37;;;;;;;8.38;5.15;;;;;;;20.83;41.30;103149.13;5048487;28;20390;-43
2022/03/24 10:31:04;;;;;;;7.20;5.28;;;;;;;20.85;41.15;103155.25;5045969;28;20535;-42
2022/03/24 10:33:45;;;;;;;7.85;5.50;;;;;;;20.86;40.91;103157.81;5049017;28;20831;-43
2022/03/24 10:36:17;;;;;;;6.95;5.20;;;;;;;20.90;40.71;103153.06;5049087;28;20363;-43
2022/03/24 10:38:49;;;;;;;9.38;6.28;;;;;;;20.92;41.17;103153.81;5049464;28;20072;-43
2022/03/24 10:41:22;;;;;;;8.82;5.75;;;;;;;20.94;41.25;103146.44;5046065;28;20067;-42
2022/03/24 10:43:51;;;;;;;8.93;6.00;;;;;;;20.97;40.72;103153.47;5045734;28;20367;-43
2022/03/24 10:46:20;;;;;;;6.15;4.68;;;;;;;20.99;40.65;103156.91;5050504;28;20116;-42
2022/03/24 10:48:48;;;;;;;14.98;5.43;;;;;;;20.99;40.81;103155.06;5049325;28;20060;-44
2022/03/24 10:51:25;;;;;;;28.30;6.63;;;;;;;21.02;41.73;103154.81;5049580;28;20124;-44
2022/03/24 10:53:54;;;;;;;27.63;7.85;;;;;;;21.05;41.35;103148.34;5046343;28;20156;-42
2022/03/24 10:56:33;;;;;;;29.55;8.25;;;;;;;21.06;41.45;103156.28;5049946;28;20440;-41
2022/03/24 10:59:03;;;;;;;28.40;9.07;;;;;;;21.09;41.43;103155.22;5045332;28;20049;-42
2022/03/24 11:01:31;;;;;;;28.20;10.95;;;;;;;21.11;41.40;103153.28;5045696;28;20063;-41
2022/03/24 11:03:58;;;;;;;29.63;11.65;;;;;;;21.11;41.19;103148.75;5048447;28;20049;-41
2022/03/24 11:06:27;;;;;;;33.85;11.23;;;;;;;21.14;41.32;103142.22;5048103;28;20055;-41
2022/03/24 11:08:59;;;;;;;29.85;10.38;;;;;;;21.14;40.89;103140.38;5049606;28;20520;-41
2022/03/24 11:11:27;;;;;;;24.88;11.20;;;;;;;21.16;41.11;103141.16;5046674;28;20133;-41
2022/03/24 11:13:59;;;;;;;20.27;10.00;;;;;;;21.17;41.12;103139.31;5048518;28;20049;-41
2022/03/24 11:16:28;;;;;;;18.98;9.60;;;;;;;21.18;41.24;103143.72;5048668;28;20123;-41
2022/03/24 11:18:57;;;;;;;24.67;10.43;;;;;;;21.20;41.23;103141.78;5049938;28;20160;-42
2022/03/24 11:21:39;;;;;;;23.10;9.65;;;;;;;21.19;41.47;103131.97;5044009;28;20041;-41
2022/03/24 11:24:06;;;;;;;22.65;10.57;;;;;;;21.20;40.92;103137.22;5046496;28;20079;-41